createdAt,value
2022-10-12T00:00:50.089Z,31.53
2022-10-12T00:03:18.106Z,31.14
2022-10-12T00:05:47.679Z,31.59
2022-10-12T00:08:15.529Z,31.64
2022-10-12T00:10:45.737Z,31.38
2022-10-12T00:13:13.621Z,31.30
2022-10-12T00:15:42.541Z,31.41
2022-10-12T00:18:10.413Z,31.60
2022-10-12T00:20:38.545Z,31.56
2022-10-12T00:23:08.097Z,31.62
2022-10-12T00:25:38.385Z,31.18
2022-10-12T00:28:07.358Z,31.35
2022-10-12T00:30:35.722Z,31.23
2022-10-12T00:33:03.580Z,31.53
2022-10-12T00:35:31.455Z,31.10
2022-10-12T00:37:59.391Z,31.32
2022-10-12T00:40:28.645Z,31.42
2022-10-12T00:42:56.662Z,31.21
2022-10-12T00:45:26.447Z,31.49
2022-10-12T00:47:58.189Z,31.40
2022-10-12T00:50:30.825Z,31.36
2022-10-12T00:53:03.299Z,31.46
2022-10-12T00:55:36.900Z,31.17
2022-10-12T00:58:08.233Z,31.16
2022-10-12T01:00:38.721Z,31.21
2022-10-12T01:03:09.113Z,31.33
2022-10-12T01:05:39.253Z,31.25
2022-10-12T01:08:07.380Z,31.14
2022-10-12T01:10:36.597Z,31.10
2022-10-12T01:13:05.040Z,31.42
2022-10-12T01:15:37.261Z,31.28
2022-10-12T01:18:12.121Z,31.22
2022-10-12T01:20:56.622Z,30.93
2022-10-12T01:23:56.812Z,30.90
2022-10-12T01:26:42.447Z,31.21
2022-10-12T01:29:28.421Z,31.02
2022-10-12T01:32:04.316Z,31.10
2022-10-12T01:34:40.200Z,31.24
2022-10-12T01:37:17.232Z,31.29
2022-10-12T01:39:51.269Z,31.25
2022-10-12T01:42:24.580Z,31.07
2022-10-12T01:44:52.556Z,30.96
2022-10-12T01:47:22.126Z,31.27
2022-10-12T01:49:50.004Z,31.37
2022-10-12T01:52:27.903Z,31.14
2022-10-12T01:55:27.937Z,31.01
2022-10-12T01:58:22.884Z,30.93
2022-10-12T02:01:00.746Z,31.30
2022-10-12T02:03:37.689Z,30.87
2022-10-12T02:06:10.160Z,30.99
2022-10-12T02:08:44.901Z,30.95
2022-10-12T02:11:14.780Z,30.85
2022-10-12T02:13:46.476Z,30.83
2022-10-12T02:16:18.245Z,31.07
2022-10-12T02:18:52.430Z,30.89
2022-10-12T02:21:22.321Z,30.74
2022-10-12T02:23:52.656Z,31.09
2022-10-12T02:26:22.219Z,30.89
2022-10-12T02:28:51.109Z,30.68
2022-10-12T02:31:30.063Z,30.58
2022-10-12T02:34:05.661Z,31.03
2022-10-12T02:36:38.858Z,30.66
2022-10-12T02:39:11.797Z,31.08
2022-10-12T02:41:44.731Z,30.93
2022-10-12T02:44:16.197Z,30.70
2022-10-12T02:46:45.668Z,30.95
2022-10-12T02:49:16.336Z,30.71
2022-10-12T02:51:45.612Z,30.50
2022-10-12T02:54:14.288Z,30.87
2022-10-12T02:56:46.242Z,30.75
2022-10-12T02:59:14.767Z,30.85
2022-10-12T03:01:42.899Z,30.52
2022-10-12T03:04:10.965Z,30.50
2022-10-12T03:06:40.232Z,30.55
2022-10-12T03:09:08.080Z,30.39
2022-10-12T03:11:37.658Z,30.78
2022-10-12T03:14:05.763Z,30.68
2022-10-12T03:16:33.642Z,30.71
2022-10-12T03:19:01.505Z,30.51
2022-10-12T03:21:29.394Z,30.50
2022-10-12T03:23:58.608Z,30.73
2022-10-12T03:26:26.523Z,30.78
2022-10-12T03:28:54.565Z,30.48
2022-10-12T03:31:22.531Z,30.74
2022-10-12T03:33:50.394Z,30.42
2022-10-12T03:36:18.840Z,30.44
2022-10-12T03:38:47.148Z,30.38
2022-10-12T03:41:16.448Z,30.43
2022-10-12T03:43:44.407Z,30.67
2022-10-12T03:46:12.322Z,30.24
2022-10-12T03:48:40.236Z,30.36
2022-10-12T03:51:08.233Z,30.26
2022-10-12T03:53:36.192Z,30.26
2022-10-12T03:56:04.432Z,30.23
2022-10-12T03:58:34.415Z,30.47
2022-10-12T04:01:02.307Z,30.46
2022-10-12T04:03:30.224Z,30.45
2022-10-12T04:05:59.366Z,30.01
2022-10-12T04:08:28.521Z,30.01
2022-10-12T04:10:56.406Z,30.00
2022-10-12T04:13:25.585Z,30.34
2022-10-12T04:15:55.528Z,30.18
2022-10-12T04:18:23.416Z,29.98
2022-10-12T04:20:51.486Z,30.25
2022-10-12T04:23:19.364Z,30.04
2022-10-12T04:25:47.888Z,30.02
2022-10-12T04:28:15.793Z,30.23
2022-10-12T04:30:43.806Z,29.86
2022-10-12T04:33:13.226Z,30.26
2022-10-12T04:35:41.339Z,29.86
2022-10-12T04:38:09.227Z,30.16
2022-10-12T04:40:37.116Z,30.00
2022-10-12T04:43:04.994Z,29.91
2022-10-12T04:45:32.860Z,29.73
2022-10-12T04:48:00.726Z,30.15
2022-10-12T04:50:30.360Z,29.86
2022-10-12T04:52:58.569Z,30.28
2022-10-12T04:55:26.853Z,30.18
2022-10-12T04:57:54.749Z,30.00
2022-10-12T05:00:22.793Z,29.88
2022-10-12T05:02:50.797Z,30.07
2022-10-12T05:05:18.797Z,30.09
2022-10-12T05:07:48.041Z,29.91
2022-10-12T05:10:16.033Z,29.83
2022-10-12T05:12:43.965Z,29.97
2022-10-12T05:15:12.508Z,30.15
2022-10-12T05:17:40.590Z,29.99
2022-10-12T05:20:10.487Z,30.09
2022-10-12T05:22:38.550Z,29.92
2022-10-12T05:25:09.457Z,29.64
2022-10-12T05:27:37.687Z,29.76
2022-10-12T05:30:06.697Z,29.64
2022-10-12T05:32:34.564Z,29.86
2022-10-12T05:35:02.495Z,30.04
2022-10-12T05:37:30.389Z,29.59
2022-10-12T05:39:58.261Z,29.59
2022-10-12T05:42:27.500Z,29.89
2022-10-12T05:44:55.405Z,30.04
2022-10-12T05:47:23.340Z,29.65
2022-10-12T05:49:51.237Z,29.92
2022-10-12T05:52:19.124Z,29.73
2022-10-12T05:54:47.033Z,29.76
2022-10-12T05:57:15.493Z,29.92
2022-10-12T05:59:44.812Z,29.59
2022-10-12T06:02:15.515Z,29.83
2022-10-12T06:04:43.776Z,29.77
2022-10-12T06:07:11.678Z,30.01
2022-10-12T06:09:39.905Z,29.69
2022-10-12T06:12:07.975Z,29.60
2022-10-12T06:14:35.940Z,29.67
2022-10-12T06:17:06.779Z,29.71
2022-10-12T06:19:34.654Z,29.66
2022-10-12T06:22:02.806Z,29.74
2022-10-12T06:24:30.680Z,29.66
2022-10-12T06:26:58.996Z,30.07
2022-10-12T06:29:27.129Z,30.08
2022-10-12T06:31:55.495Z,30.04
2022-10-12T06:34:24.781Z,29.95
2022-10-12T06:36:52.939Z,30.00
2022-10-12T06:39:21.792Z,30.15
2022-10-12T06:41:49.692Z,29.95
2022-10-12T06:44:22.443Z,30.09
2022-10-12T06:46:50.688Z,29.91
2022-10-12T06:49:18.965Z,29.90
2022-10-12T06:51:48.263Z,29.84
2022-10-12T06:54:16.261Z,30.00
2022-10-12T06:56:44.826Z,30.01
2022-10-12T06:59:13.851Z,30.28
2022-10-12T07:01:41.885Z,30.44
2022-10-12T07:04:09.941Z,30.28
2022-10-12T07:06:37.842Z,30.79
2022-10-12T07:09:07.101Z,30.61
2022-10-12T07:11:35.062Z,30.82
2022-10-12T07:14:02.973Z,30.71
2022-10-12T07:16:30.905Z,30.81
2022-10-12T07:18:58.783Z,30.93
2022-10-12T07:21:26.734Z,30.91
2022-10-12T07:23:54.719Z,31.25
2022-10-12T07:26:24.139Z,31.09
2022-10-12T07:28:52.058Z,31.21
2022-10-12T07:31:19.985Z,31.47
2022-10-12T07:33:47.894Z,31.84
2022-10-12T07:36:21.135Z,31.83
2022-10-12T07:38:49.824Z,31.53
2022-10-12T07:41:18.522Z,31.67
2022-10-12T07:43:47.797Z,31.97
2022-10-12T07:46:15.698Z,31.84
2022-10-12T07:48:49.780Z,31.92
2022-10-12T07:51:18.724Z,31.94
2022-10-12T07:53:46.723Z,32.24
2022-10-12T07:56:16.126Z,32.20
2022-10-12T07:58:45.022Z,32.08
2022-10-12T08:01:14.430Z,32.17
2022-10-12T08:03:42.625Z,32.25
2022-10-12T08:06:12.402Z,32.52
2022-10-12T08:08:41.168Z,32.49
2022-10-12T08:11:10.028Z,32.45
2022-10-12T08:13:38.766Z,32.67
2022-10-12T08:16:10.723Z,32.44
2022-10-12T08:18:40.617Z,32.82
2022-10-12T08:21:10.053Z,32.84
2022-10-12T08:23:38.689Z,32.58
2022-10-12T08:26:07.765Z,32.85
2022-10-12T08:28:36.999Z,32.88
2022-10-12T08:31:08.346Z,32.62
2022-10-12T08:33:36.465Z,32.70
2022-10-12T08:36:07.868Z,32.62
2022-10-12T08:38:38.605Z,32.53
2022-10-12T08:41:19.355Z,32.42
2022-10-12T08:44:01.813Z,32.41
2022-10-12T08:46:30.864Z,32.48
2022-10-12T08:49:01.749Z,32.36
2022-10-12T08:51:34.299Z,32.69
2022-10-12T08:54:06.686Z,32.37
2022-10-12T08:56:35.908Z,32.33
2022-10-12T08:59:04.469Z,32.28
2022-10-12T09:01:37.435Z,32.39
2022-10-12T09:04:15.241Z,32.18
2022-10-12T09:06:49.478Z,32.20
2022-10-12T09:09:41.601Z,31.93
2022-10-12T09:12:26.856Z,32.03
2022-10-12T09:15:00.470Z,32.06
2022-10-12T09:17:32.180Z,32.06
2022-10-12T09:20:05.303Z,31.58
2022-10-12T09:22:35.465Z,31.56
2022-10-12T09:25:04.254Z,31.73
2022-10-12T09:27:32.959Z,31.62
2022-10-12T09:30:04.800Z,31.71
2022-10-12T09:33:10.622Z,31.24
2022-10-12T09:35:38.977Z,31.25
2022-10-12T09:38:11.386Z,31.95
2022-10-12T09:40:40.201Z,32.29
2022-10-12T09:43:08.867Z,32.59
2022-10-12T09:45:37.149Z,32.33
2022-10-12T09:48:17.157Z,32.45
2022-10-12T09:50:49.653Z,32.68
2022-10-12T09:53:29.743Z,32.75
2022-10-12T09:56:01.530Z,32.83
2022-10-12T09:58:30.727Z,32.87
2022-10-12T10:01:21.540Z,32.78
2022-10-12T10:03:52.683Z,32.81
2022-10-12T10:06:25.802Z,32.44
2022-10-12T10:08:56.594Z,32.46
2022-10-12T10:11:28.297Z,32.31
2022-10-12T10:13:56.492Z,32.28
2022-10-12T10:16:27.073Z,32.12
2022-10-12T10:18:59.924Z,31.78
2022-10-12T10:21:35.060Z,31.50
2022-10-12T10:24:06.534Z,31.51
2022-10-12T10:26:53.397Z,31.00
2022-10-12T10:29:33.946Z,30.93
2022-10-12T10:32:23.821Z,31.13
2022-10-12T10:35:04.119Z,31.91
2022-10-12T10:37:32.912Z,32.00
2022-10-12T10:40:02.860Z,32.13
2022-10-12T10:42:32.847Z,32.50
2022-10-12T10:45:03.549Z,32.48
2022-10-12T10:47:33.581Z,32.69
2022-10-12T10:50:04.092Z,32.77
2022-10-12T10:52:34.949Z,33.11
2022-10-12T10:55:20.906Z,33.03
2022-10-12T10:57:58.005Z,33.46
2022-10-12T11:00:38.579Z,33.46
2022-10-12T11:03:14.184Z,33.41
2022-10-12T11:05:46.519Z,33.68
2022-10-12T11:08:18.445Z,33.85
2022-10-12T11:10:51.545Z,34.18
2022-10-12T11:13:22.912Z,34.56
2022-10-12T11:15:55.616Z,34.71
2022-10-12T11:18:31.265Z,34.71
2022-10-12T11:21:03.590Z,34.31
2022-10-12T11:23:41.573Z,34.49
2022-10-12T11:26:17.883Z,33.91
2022-10-12T11:28:46.065Z,33.69
2022-10-12T11:31:21.465Z,33.21
2022-10-12T11:33:51.333Z,32.96
2022-10-12T11:36:22.745Z,32.67
2022-10-12T11:38:54.210Z,32.35
2022-10-12T11:41:35.365Z,32.06
2022-10-12T11:44:08.550Z,31.88
2022-10-12T11:46:41.098Z,31.67
2022-10-12T11:49:15.338Z,31.32
2022-10-12T11:51:48.293Z,31.28
2022-10-12T11:54:24.892Z,31.29
2022-10-12T11:56:59.580Z,30.98
2022-10-12T11:59:33.569Z,30.82
2022-10-12T12:02:13.905Z,30.86
2022-10-12T12:04:45.376Z,30.69
2022-10-12T12:07:49.560Z,30.33
2022-10-12T12:11:03.170Z,30.31
2022-10-12T12:13:33.236Z,30.15
2022-10-12T12:16:35.181Z,30.35
2022-10-12T12:19:35.986Z,29.92
2022-10-12T12:22:28.686Z,29.88
2022-10-12T12:25:17.907Z,29.69
2022-10-12T12:27:49.350Z,29.68
2022-10-12T12:30:40.652Z,29.29
2022-10-12T12:33:29.759Z,29.37
2022-10-12T12:36:00.853Z,29.32
2022-10-12T12:38:33.019Z,29.09
2022-10-12T12:41:08.132Z,28.96
2022-10-12T12:44:02.300Z,28.94
2022-10-12T12:50:02.242Z,29.81
2022-10-12T12:52:32.941Z,30.22
2022-10-12T12:55:25.648Z,30.96
2022-10-12T12:58:14.609Z,31.85
2022-10-12T13:00:55.060Z,31.97
2022-10-12T13:03:49.092Z,31.85
2022-10-12T13:06:55.947Z,31.39
2022-10-12T13:09:54.604Z,31.06
2022-10-12T13:12:59.912Z,30.93
2022-10-12T13:15:46.403Z,30.97
2022-10-12T13:18:49.135Z,31.01
2022-10-12T13:21:20.460Z,31.00
2022-10-12T13:23:50.310Z,30.74
2022-10-12T13:26:24.926Z,30.54
2022-10-12T13:28:53.889Z,30.83
2022-10-12T13:31:27.185Z,31.38
2022-10-12T13:34:02.191Z,31.65
2022-10-12T13:36:32.154Z,32.24
2022-10-12T13:39:02.021Z,32.56
2022-10-12T13:41:33.474Z,32.75
2022-10-12T13:44:04.867Z,32.92
2022-10-12T13:46:42.422Z,32.99
2022-10-12T13:49:15.308Z,33.38
2022-10-12T13:51:45.012Z,32.97
2022-10-12T13:54:21.753Z,32.34
2022-10-12T13:56:58.389Z,31.95
2022-10-12T13:59:29.591Z,31.55
2022-10-12T14:02:00.648Z,31.15
2022-10-12T14:04:30.100Z,30.78
2022-10-12T14:07:02.428Z,30.61
2022-10-12T14:09:37.279Z,30.21
2022-10-12T14:12:07.048Z,30.16
2022-10-12T14:14:37.442Z,29.94
2022-10-12T14:17:05.845Z,29.96
2022-10-12T14:19:37.107Z,29.55
2022-10-12T14:22:05.288Z,29.39
2022-10-12T14:24:35.440Z,29.64
2022-10-12T14:27:05.549Z,29.14
2022-10-12T14:29:38.018Z,28.95
2022-10-12T14:32:07.771Z,28.92
2022-10-12T14:34:40.392Z,28.82
2022-10-12T14:37:25.080Z,28.65
2022-10-12T14:39:59.587Z,28.47
2022-10-12T14:42:36.410Z,28.01
2022-10-12T14:45:22.417Z,27.88
2022-10-12T14:47:50.398Z,27.78
2022-10-12T14:50:21.703Z,27.69
2022-10-12T14:52:52.796Z,27.50
2022-10-12T14:55:22.585Z,27.51
2022-10-12T14:57:51.426Z,27.62
2022-10-12T15:00:23.325Z,27.50
2022-10-12T15:02:52.495Z,27.33
2022-10-12T15:05:23.437Z,27.35
2022-10-12T15:07:52.225Z,27.25
2022-10-12T15:10:22.608Z,27.29
2022-10-12T15:12:51.301Z,27.38
2022-10-12T15:15:29.842Z,27.39
2022-10-12T15:17:57.947Z,29.17
2022-10-12T15:20:26.045Z,29.83
2022-10-12T15:22:53.971Z,30.11
2022-10-12T15:25:27.003Z,30.03
2022-10-12T15:27:55.006Z,29.77
2022-10-12T15:30:24.237Z,29.71
2022-10-12T15:32:52.300Z,29.57
2022-10-12T15:35:23.324Z,29.65
2022-10-12T15:37:52.180Z,29.57
2022-10-12T15:40:21.725Z,29.29
2022-10-12T15:42:49.810Z,29.24
2022-10-12T15:45:21.248Z,29.38
2022-10-12T15:47:51.664Z,29.16
2022-10-12T15:50:21.564Z,29.20
2022-10-12T15:52:49.633Z,29.00
2022-10-12T15:55:21.132Z,29.18
2022-10-12T15:57:49.945Z,29.32
2022-10-12T16:00:19.449Z,29.04
2022-10-12T16:02:47.362Z,29.13
2022-10-12T16:05:20.516Z,29.01
2022-10-12T16:07:48.948Z,29.07
2022-10-12T16:10:19.208Z,29.07
2022-10-12T16:12:49.651Z,28.94
2022-10-12T16:15:21.418Z,28.96
2022-10-12T16:17:49.732Z,29.19
2022-10-12T16:20:19.725Z,29.18
2022-10-12T16:22:48.853Z,29.22
2022-10-12T16:25:18.285Z,28.97
2022-10-12T16:27:47.022Z,29.09
2022-10-12T16:30:15.799Z,29.24
2022-10-12T16:32:43.712Z,29.02
2022-10-12T16:35:12.735Z,29.11
2022-10-12T16:37:42.150Z,29.13
2022-10-12T16:40:11.965Z,29.09
2022-10-12T16:42:44.758Z,29.13
2022-10-12T16:45:12.966Z,29.32
2022-10-12T16:47:42.769Z,29.31
2022-10-12T16:50:11.228Z,29.30
2022-10-12T16:52:40.160Z,29.38
2022-10-12T16:55:10.925Z,29.28
2022-10-12T16:57:39.576Z,29.15
2022-10-12T17:00:10.589Z,29.37
2022-10-12T17:02:38.820Z,29.35
2022-10-12T17:05:07.854Z,29.62
2022-10-12T17:07:35.865Z,29.65
2022-10-12T17:10:03.889Z,29.77
2022-10-12T17:12:33.309Z,29.61
2022-10-12T17:15:01.216Z,29.56
2022-10-12T17:17:29.176Z,29.48
2022-10-12T17:19:57.065Z,29.55
2022-10-12T17:22:24.971Z,29.40
2022-10-12T17:24:52.974Z,29.47
2022-10-12T17:27:20.836Z,29.49
2022-10-12T17:29:50.257Z,29.55
2022-10-12T17:32:18.643Z,29.33
2022-10-12T17:34:47.397Z,29.49
2022-10-12T17:37:15.694Z,29.60
2022-10-12T17:39:45.719Z,29.64
2022-10-12T17:42:14.043Z,29.45
2022-10-12T17:44:42.195Z,29.77
2022-10-12T17:47:11.509Z,29.78
2022-10-12T17:49:39.388Z,29.75
2022-10-12T17:52:07.617Z,29.58
2022-10-12T17:54:35.500Z,29.75
2022-10-12T17:57:03.392Z,29.47
2022-10-12T17:59:31.381Z,29.75
2022-10-12T18:01:59.260Z,29.56
2022-10-12T18:04:28.628Z,29.42
2022-10-12T18:06:56.533Z,29.55
2022-10-12T18:09:24.502Z,29.62
2022-10-12T18:11:52.399Z,29.59
2022-10-12T18:14:20.307Z,29.62
2022-10-12T18:16:48.183Z,29.83
2022-10-12T18:19:16.130Z,29.89
2022-10-12T18:21:45.628Z,29.78
2022-10-12T18:24:17.444Z,29.46
2022-10-12T18:26:47.424Z,29.82
2022-10-12T18:29:19.014Z,29.71
2022-10-12T18:31:46.970Z,29.96
2022-10-12T18:34:14.886Z,29.54
2022-10-12T18:36:43.153Z,29.43
2022-10-12T18:39:12.748Z,29.78
2022-10-12T18:41:40.724Z,29.86
2022-10-12T18:44:10.853Z,29.74
2022-10-12T18:46:40.989Z,29.46
2022-10-12T18:49:12.944Z,29.52
2022-10-12T18:51:43.837Z,29.52
2022-10-12T18:54:17.110Z,29.81
2022-10-12T18:56:46.124Z,29.59
2022-10-12T18:59:17.777Z,29.87
2022-10-12T19:01:47.692Z,29.76
2022-10-12T19:04:16.983Z,29.60
2022-10-12T19:06:48.374Z,29.87
2022-10-12T19:09:17.952Z,29.64
2022-10-12T19:11:46.201Z,29.65
2022-10-12T19:14:16.649Z,30.02
2022-10-12T19:16:46.642Z,29.85
2022-10-12T19:19:20.832Z,29.69
2022-10-12T19:21:51.746Z,29.96
2022-10-12T19:24:22.651Z,29.64
2022-10-12T19:26:50.865Z,29.77
2022-10-12T19:29:19.272Z,29.88
2022-10-12T19:31:49.472Z,29.74
2022-10-12T19:34:19.623Z,30.08
2022-10-12T19:36:48.830Z,30.14
2022-10-12T19:39:18.785Z,29.85
2022-10-12T19:41:48.588Z,29.90
2022-10-12T19:44:16.650Z,29.88
2022-10-12T19:46:47.320Z,29.88
2022-10-12T19:49:16.922Z,30.31
2022-10-12T19:51:45.418Z,30.34
2022-10-12T19:54:15.013Z,30.21
2022-10-12T19:56:43.570Z,30.44
2022-10-12T19:59:12.897Z,30.21
2022-10-12T20:01:41.208Z,30.26
2022-10-12T20:04:12.049Z,30.24
2022-10-12T20:06:40.248Z,30.45
2022-10-12T20:09:09.912Z,30.37
2022-10-12T20:11:38.441Z,30.54
2022-10-12T20:14:07.192Z,30.47
2022-10-12T20:16:37.940Z,30.52
2022-10-12T20:19:06.944Z,30.56
2022-10-12T20:21:36.436Z,30.52
2022-10-12T20:24:05.114Z,30.76
2022-10-12T20:26:32.984Z,30.55
2022-10-12T20:29:01.713Z,30.56
2022-10-12T20:31:29.659Z,30.68
2022-10-12T20:33:58.943Z,31.08
2022-10-12T20:36:29.548Z,30.77
2022-10-12T20:38:58.489Z,31.03
2022-10-12T20:41:27.721Z,30.85
2022-10-12T20:43:57.266Z,30.62
2022-10-12T20:46:25.753Z,30.73
2022-10-12T20:48:59.362Z,30.87
2022-10-12T20:51:29.906Z,31.00
2022-10-12T20:53:59.383Z,30.93
2022-10-12T20:56:27.541Z,31.05
2022-10-12T20:58:55.596Z,30.81
2022-10-12T21:01:25.536Z,30.90
2022-10-12T21:03:53.623Z,31.11
2022-10-12T21:06:23.557Z,31.02
2022-10-12T21:08:52.734Z,31.18
2022-10-12T21:11:21.062Z,30.88
2022-10-12T21:13:49.361Z,31.35
2022-10-12T21:16:17.417Z,30.91
2022-10-12T21:18:45.400Z,31.23
2022-10-12T21:21:16.137Z,31.46
2022-10-12T21:23:46.757Z,31.18
2022-10-12T21:26:16.352Z,31.33
2022-10-12T21:28:44.444Z,31.80
2022-10-12T21:31:13.733Z,31.35
2022-10-12T21:33:42.053Z,31.48
2022-10-12T21:36:11.863Z,31.68
2022-10-12T21:38:39.865Z,31.86
2022-10-12T21:41:10.704Z,31.94
2022-10-12T21:43:39.553Z,31.84
2022-10-12T21:46:09.577Z,32.18
2022-10-12T21:48:38.250Z,32.63
2022-10-12T21:51:07.490Z,32.68
2022-10-12T21:53:36.436Z,32.49
2022-10-12T21:56:07.243Z,32.63
2022-10-12T21:58:36.553Z,32.79
2022-10-12T22:01:06.140Z,32.94
2022-10-12T22:03:34.173Z,32.82
2022-10-12T22:06:02.290Z,32.94
2022-10-12T22:08:30.293Z,32.89
2022-10-12T22:10:58.221Z,32.65
2022-10-12T22:13:26.100Z,32.97
2022-10-12T22:16:06.650Z,32.68
2022-10-12T22:18:34.704Z,32.63
2022-10-12T22:21:04.243Z,32.50
2022-10-12T22:23:32.443Z,32.42
2022-10-12T22:26:06.847Z,32.77
2022-10-12T22:28:35.663Z,32.65
2022-10-12T22:31:08.681Z,32.41
2022-10-12T22:33:37.414Z,32.34
2022-10-12T22:36:07.031Z,32.46
2022-10-12T22:38:36.417Z,32.68
2022-10-12T22:41:07.520Z,32.32
2022-10-12T22:43:39.513Z,32.67
2022-10-12T22:46:09.104Z,32.70
2022-10-12T22:48:37.957Z,32.62
2022-10-12T22:51:07.410Z,32.46
2022-10-12T22:53:36.151Z,32.55
2022-10-12T22:56:06.494Z,32.86
2022-10-12T22:58:34.782Z,32.43
2022-10-12T23:01:04.441Z,32.37
2022-10-12T23:03:34.909Z,32.48
2022-10-12T23:06:08.212Z,32.44
2022-10-12T23:08:36.430Z,32.35
2022-10-12T23:11:05.802Z,32.43
2022-10-12T23:13:35.477Z,32.46
2022-10-12T23:16:04.123Z,32.63
2022-10-12T23:18:34.343Z,32.41
2022-10-12T23:21:05.527Z,32.61
2022-10-12T23:23:34.819Z,32.49
2022-10-12T23:26:05.125Z,32.26
2022-10-12T23:28:33.122Z,32.48
2022-10-12T23:31:03.120Z,32.31
2022-10-12T23:33:31.042Z,32.50
2022-10-12T23:36:02.254Z,32.41
2022-10-12T23:38:31.281Z,32.55
2022-10-12T23:40:59.807Z,32.15
2022-10-12T23:43:28.172Z,32.48
2022-10-12T23:45:56.089Z,32.13
2022-10-12T23:48:24.195Z,32.25
2022-10-12T23:50:52.813Z,32.06
2022-10-12T23:53:23.902Z,32.19
2022-10-12T23:55:53.015Z,32.19
2022-10-12T23:58:21.346Z,32.12
